sensor_id;sensor_type;location;lat;lon;timestamp;P1;durP1;ratioP1;P2;durP2;ratioP2
61590;SDS011;57639;52.410;-1.966;2023-07-16T00:01:45;2.40;;;0.80;;
61590;SDS011;57639;52.410;-1.966;2023-07-16T00:04:51;2.33;;;0.95;;
61590;SDS011;57639;52.410;-1.966;2023-07-16T00:08:00;2.03;;;0.98;;
61590;SDS011;57639;52.410;-1.966;2023-07-16T00:11:07;4.43;;;0.90;;
61590;SDS011;57639;52.410;-1.966;2023-07-16T00:14:13;3.38;;;1.10;;
61590;SDS011;57639;52.410;-1.966;2023-07-16T00:17:19;3.05;;;1.08;;
61590;SDS011;57639;52.410;-1.966;2023-07-16T00:20:26;2.95;;;1.02;;
61590;SDS011;57639;52.410;-1.966;2023-07-16T00:23:35;3.00;;;0.93;;
61590;SDS011;57639;52.410;-1.966;2023-07-16T00:26:41;2.00;;;1.00;;
61590;SDS011;57639;52.410;-1.966;2023-07-16T00:29:48;3.70;;;1.25;;
61590;SDS011;57639;52.410;-1.966;2023-07-16T00:32:54;2.22;;;0.90;;
61590;SDS011;57639;52.410;-1.966;2023-07-16T00:36:00;1.92;;;0.90;;
61590;SDS011;57639;52.410;-1.966;2023-07-16T00:39:10;3.10;;;1.00;;
61590;SDS011;57639;52.410;-1.966;2023-07-16T00:42:16;2.77;;;1.00;;
61590;SDS011;57639;52.410;-1.966;2023-07-16T00:45:22;4.05;;;1.10;;
61590;SDS011;57639;52.410;-1.966;2023-07-16T00:48:29;3.13;;;1.10;;
61590;SDS011;57639;52.410;-1.966;2023-07-16T00:51:35;2.90;;;0.98;;
61590;SDS011;57639;52.410;-1.966;2023-07-16T00:54:45;2.38;;;0.95;;
61590;SDS011;57639;52.410;-1.966;2023-07-16T00:57:54;1.95;;;0.77;;
61590;SDS011;57639;52.410;-1.966;2023-07-16T01:01:05;3.30;;;1.10;;
61590;SDS011;57639;52.410;-1.966;2023-07-16T01:04:11;1.67;;;0.88;;
61590;SDS011;57639;52.410;-1.966;2023-07-16T01:07:18;2.42;;;0.80;;
61590;SDS011;57639;52.410;-1.966;2023-07-16T01:10:28;2.20;;;0.90;;
61590;SDS011;57639;52.410;-1.966;2023-07-16T01:13:34;2.78;;;0.95;;
61590;SDS011;57639;52.410;-1.966;2023-07-16T01:16:41;1.50;;;0.77;;
61590;SDS011;57639;52.410;-1.966;2023-07-16T01:19:48;3.08;;;0.93;;
61590;SDS011;57639;52.410;-1.966;2023-07-16T01:23:05;2.50;;;0.90;;
61590;SDS011;57639;52.410;-1.966;2023-07-16T01:26:32;1.83;;;0.60;;
61590;SDS011;57639;52.410;-1.966;2023-07-16T01:29:48;2.08;;;0.80;;
61590;SDS011;57639;52.410;-1.966;2023-07-16T01:32:57;3.05;;;0.90;;
61590;SDS011;57639;52.410;-1.966;2023-07-16T01:36:04;2.15;;;0.90;;
61590;SDS011;57639;52.410;-1.966;2023-07-16T01:39:12;2.45;;;0.95;;
61590;SDS011;57639;52.410;-1.966;2023-07-16T01:42:19;3.42;;;1.00;;
61590;SDS011;57639;52.410;-1.966;2023-07-16T01:45:28;2.25;;;0.93;;
61590;SDS011;57639;52.410;-1.966;2023-07-16T01:48:35;3.93;;;0.80;;
61590;SDS011;57639;52.410;-1.966;2023-07-16T01:51:42;2.35;;;1.08;;
61590;SDS011;57639;52.410;-1.966;2023-07-16T01:54:48;2.35;;;0.82;;
61590;SDS011;57639;52.410;-1.966;2023-07-16T01:57:55;3.28;;;0.90;;
61590;SDS011;57639;52.410;-1.966;2023-07-16T02:01:04;2.05;;;0.80;;
61590;SDS011;57639;52.410;-1.966;2023-07-16T02:04:10;2.47;;;1.10;;
61590;SDS011;57639;52.410;-1.966;2023-07-16T02:07:16;3.85;;;1.00;;
61590;SDS011;57639;52.410;-1.966;2023-07-16T02:10:23;3.00;;;0.90;;
61590;SDS011;57639;52.410;-1.966;2023-07-16T02:13:29;2.40;;;0.90;;
61590;SDS011;57639;52.410;-1.966;2023-07-16T02:16:38;1.98;;;0.88;;
61590;SDS011;57639;52.410;-1.966;2023-07-16T02:19:44;2.07;;;0.80;;
61590;SDS011;57639;52.410;-1.966;2023-07-16T02:22:51;2.15;;;0.77;;
61590;SDS011;57639;52.410;-1.966;2023-07-16T02:25:57;3.75;;;1.05;;
61590;SDS011;57639;52.410;-1.966;2023-07-16T02:29:03;2.88;;;1.02;;
61590;SDS011;57639;52.410;-1.966;2023-07-16T02:32:14;1.98;;;0.75;;
61590;SDS011;57639;52.410;-1.966;2023-07-16T02:35:22;2.28;;;0.85;;
61590;SDS011;57639;52.410;-1.966;2023-07-16T02:38:29;3.13;;;1.02;;
61590;SDS011;57639;52.410;-1.966;2023-07-16T02:41:35;2.28;;;1.00;;
61590;SDS011;57639;52.410;-1.966;2023-07-16T02:44:42;1.65;;;0.85;;
61590;SDS011;57639;52.410;-1.966;2023-07-16T02:47:52;2.78;;;0.98;;
61590;SDS011;57639;52.410;-1.966;2023-07-16T02:50:58;3.50;;;1.10;;
61590;SDS011;57639;52.410;-1.966;2023-07-16T02:54:04;3.97;;;1.10;;
61590;SDS011;57639;52.410;-1.966;2023-07-16T02:57:12;3.60;;;1.08;;
61590;SDS011;57639;52.410;-1.966;2023-07-16T03:00:18;3.08;;;1.00;;
61590;SDS011;57639;52.410;-1.966;2023-07-16T03:03:28;2.72;;;1.02;;
61590;SDS011;57639;52.410;-1.966;2023-07-16T03:06:34;3.37;;;1.13;;
61590;SDS011;57639;52.410;-1.966;2023-07-16T03:09:40;2.00;;;0.85;;
61590;SDS011;57639;52.410;-1.966;2023-07-16T03:12:46;3.50;;;1.10;;
61590;SDS011;57639;52.410;-1.966;2023-07-16T03:15:54;3.08;;;1.02;;
61590;SDS011;57639;52.410;-1.966;2023-07-16T03:19:06;2.57;;;0.90;;
61590;SDS011;57639;52.410;-1.966;2023-07-16T03:22:16;2.28;;;0.77;;
61590;SDS011;57639;52.410;-1.966;2023-07-16T03:25:26;1.95;;;1.05;;
61590;SDS011;57639;52.410;-1.966;2023-07-16T03:28:36;3.97;;;1.27;;
61590;SDS011;57639;52.410;-1.966;2023-07-16T03:31:43;2.30;;;0.98;;
61590;SDS011;57639;52.410;-1.966;2023-07-16T03:34:53;2.38;;;0.98;;
61590;SDS011;57639;52.410;-1.966;2023-07-16T03:41:06;3.50;;;0.90;;
61590;SDS011;57639;52.410;-1.966;2023-07-16T03:44:13;2.75;;;0.90;;
61590;SDS011;57639;52.410;-1.966;2023-07-16T03:47:35;2.38;;;0.80;;
61590;SDS011;57639;52.410;-1.966;2023-07-16T03:51:01;3.78;;;1.13;;
61590;SDS011;57639;52.410;-1.966;2023-07-16T03:54:09;2.75;;;0.88;;
61590;SDS011;57639;52.410;-1.966;2023-07-16T03:57:16;3.72;;;1.20;;
61590;SDS011;57639;52.410;-1.966;2023-07-16T04:00:22;4.03;;;1.20;;
61590;SDS011;57639;52.410;-1.966;2023-07-16T04:03:28;2.25;;;0.90;;
61590;SDS011;57639;52.410;-1.966;2023-07-16T04:06:37;2.22;;;0.90;;
61590;SDS011;57639;52.410;-1.966;2023-07-16T04:09:44;2.75;;;1.00;;
61590;SDS011;57639;52.410;-1.966;2023-07-16T04:12:50;3.10;;;1.02;;
61590;SDS011;57639;52.410;-1.966;2023-07-16T04:15:57;2.88;;;1.00;;
61590;SDS011;57639;52.410;-1.966;2023-07-16T04:19:03;2.75;;;0.90;;
61590;SDS011;57639;52.410;-1.966;2023-07-16T04:22:13;2.83;;;0.85;;
61590;SDS011;57639;52.410;-1.966;2023-07-16T04:25:19;2.33;;;0.90;;
61590;SDS011;57639;52.410;-1.966;2023-07-16T04:28:25;3.55;;;1.10;;
61590;SDS011;57639;52.410;-1.966;2023-07-16T04:31:32;2.40;;;0.90;;
61590;SDS011;57639;52.410;-1.966;2023-07-16T04:34:38;2.20;;;0.80;;
61590;SDS011;57639;52.410;-1.966;2023-07-16T04:37:48;3.05;;;0.98;;
61590;SDS011;57639;52.410;-1.966;2023-07-16T04:40:55;3.10;;;1.27;;
61590;SDS011;57639;52.410;-1.966;2023-07-16T04:44:01;2.75;;;1.00;;
61590;SDS011;57639;52.410;-1.966;2023-07-16T04:47:08;2.08;;;0.82;;
61590;SDS011;57639;52.410;-1.966;2023-07-16T04:50:16;2.67;;;1.15;;
61590;SDS011;57639;52.410;-1.966;2023-07-16T04:53:26;2.40;;;0.90;;
61590;SDS011;57639;52.410;-1.966;2023-07-16T04:56:32;3.33;;;1.17;;
61590;SDS011;57639;52.410;-1.966;2023-07-16T04:59:38;3.05;;;1.00;;
61590;SDS011;57639;52.410;-1.966;2023-07-16T05:02:45;2.67;;;0.80;;
61590;SDS011;57639;52.410;-1.966;2023-07-16T05:05:52;2.92;;;0.93;;
61590;SDS011;57639;52.410;-1.966;2023-07-16T05:09:01;2.80;;;1.20;;
61590;SDS011;57639;52.410;-1.966;2023-07-16T05:12:08;3.13;;;0.82;;
61590;SDS011;57639;52.410;-1.966;2023-07-16T05:15:14;2.50;;;0.90;;
61590;SDS011;57639;52.410;-1.966;2023-07-16T05:18:21;3.92;;;1.00;;
61590;SDS011;57639;52.410;-1.966;2023-07-16T05:21:27;3.05;;;1.02;;
61590;SDS011;57639;52.410;-1.966;2023-07-16T05:24:36;4.18;;;1.10;;
61590;SDS011;57639;52.410;-1.966;2023-07-16T05:27:42;2.17;;;0.98;;
61590;SDS011;57639;52.410;-1.966;2023-07-16T05:30:57;1.65;;;0.70;;
61590;SDS011;57639;52.410;-1.966;2023-07-16T05:34:03;3.17;;;0.80;;
61590;SDS011;57639;52.410;-1.966;2023-07-16T05:37:10;2.17;;;0.90;;
61590;SDS011;57639;52.410;-1.966;2023-07-16T05:40:19;3.05;;;1.00;;
61590;SDS011;57639;52.410;-1.966;2023-07-16T05:43:26;2.30;;;0.77;;
61590;SDS011;57639;52.410;-1.966;2023-07-16T05:46:32;2.50;;;0.95;;
61590;SDS011;57639;52.410;-1.966;2023-07-16T05:49:39;3.78;;;1.00;;
61590;SDS011;57639;52.410;-1.966;2023-07-16T05:52:48;2.50;;;0.90;;
61590;SDS011;57639;52.410;-1.966;2023-07-16T05:55:57;2.35;;;0.90;;
61590;SDS011;57639;52.410;-1.966;2023-07-16T05:59:03;2.70;;;0.80;;
61590;SDS011;57639;52.410;-1.966;2023-07-16T06:02:09;2.75;;;0.98;;
61590;SDS011;57639;52.410;-1.966;2023-07-16T06:05:16;1.95;;;0.90;;
61590;SDS011;57639;52.410;-1.966;2023-07-16T06:08:22;3.45;;;0.88;;
61590;SDS011;57639;52.410;-1.966;2023-07-16T06:11:32;2.92;;;1.00;;
61590;SDS011;57639;52.410;-1.966;2023-07-16T06:14:38;2.40;;;1.10;;
61590;SDS011;57639;52.410;-1.966;2023-07-16T06:17:44;3.05;;;0.90;;
61590;SDS011;57639;52.410;-1.966;2023-07-16T06:20:51;2.63;;;1.00;;
61590;SDS011;57639;52.410;-1.966;2023-07-16T06:23:58;1.90;;;0.68;;
61590;SDS011;57639;52.410;-1.966;2023-07-16T06:27:07;1.92;;;0.90;;
61590;SDS011;57639;52.410;-1.966;2023-07-16T06:30:13;2.50;;;0.90;;
61590;SDS011;57639;52.410;-1.966;2023-07-16T06:33:20;4.05;;;0.90;;
61590;SDS011;57639;52.410;-1.966;2023-07-16T06:36:28;1.20;;;0.70;;
61590;SDS011;57639;52.410;-1.966;2023-07-16T06:39:34;2.58;;;0.90;;
61590;SDS011;57639;52.410;-1.966;2023-07-16T06:42:43;3.28;;;0.77;;
61590;SDS011;57639;52.410;-1.966;2023-07-16T06:45:49;1.80;;;0.70;;
61590;SDS011;57639;52.410;-1.966;2023-07-16T06:48:56;2.20;;;0.80;;
61590;SDS011;57639;52.410;-1.966;2023-07-16T06:52:02;2.67;;;0.90;;
61590;SDS011;57639;52.410;-1.966;2023-07-16T06:55:09;2.45;;;0.73;;
61590;SDS011;57639;52.410;-1.966;2023-07-16T06:58:18;1.83;;;0.90;;
61590;SDS011;57639;52.410;-1.966;2023-07-16T07:01:25;4.50;;;1.10;;
61590;SDS011;57639;52.410;-1.966;2023-07-16T07:04:32;2.85;;;1.05;;
61590;SDS011;57639;52.410;-1.966;2023-07-16T07:07:38;2.85;;;0.90;;
61590;SDS011;57639;52.410;-1.966;2023-07-16T07:10:46;2.30;;;0.90;;
61590;SDS011;57639;52.410;-1.966;2023-07-16T07:13:57;2.75;;;0.75;;
61590;SDS011;57639;52.410;-1.966;2023-07-16T07:17:06;4.80;;;1.03;;
61590;SDS011;57639;52.410;-1.966;2023-07-16T07:20:13;3.60;;;0.90;;
61590;SDS011;57639;52.410;-1.966;2023-07-16T07:23:19;1.95;;;0.85;;
61590;SDS011;57639;52.410;-1.966;2023-07-16T07:26:25;2.42;;;0.68;;
61590;SDS011;57639;52.410;-1.966;2023-07-16T07:29:35;2.00;;;0.70;;
61590;SDS011;57639;52.410;-1.966;2023-07-16T07:32:42;2.73;;;0.90;;
61590;SDS011;57639;52.410;-1.966;2023-07-16T07:35:52;1.40;;;0.70;;
61590;SDS011;57639;52.410;-1.966;2023-07-16T07:38:59;1.27;;;0.73;;
61590;SDS011;57639;52.410;-1.966;2023-07-16T07:42:06;5.43;;;1.00;;
61590;SDS011;57639;52.410;-1.966;2023-07-16T07:45:15;2.28;;;0.90;;
61590;SDS011;57639;52.410;-1.966;2023-07-16T07:48:21;2.30;;;0.90;;
61590;SDS011;57639;52.410;-1.966;2023-07-16T07:51:28;2.45;;;0.90;;
61590;SDS011;57639;52.410;-1.966;2023-07-16T07:54:35;2.22;;;0.93;;
61590;SDS011;57639;52.410;-1.966;2023-07-16T07:57:41;2.25;;;1.00;;
61590;SDS011;57639;52.410;-1.966;2023-07-16T08:00:52;3.33;;;0.80;;
61590;SDS011;57639;52.410;-1.966;2023-07-16T08:03:58;1.75;;;0.63;;
61590;SDS011;57639;52.410;-1.966;2023-07-16T08:07:04;3.13;;;0.98;;
61590;SDS011;57639;52.410;-1.966;2023-07-16T08:10:11;2.05;;;0.80;;
61590;SDS011;57639;52.410;-1.966;2023-07-16T08:13:17;2.15;;;0.88;;
61590;SDS011;57639;52.410;-1.966;2023-07-16T08:16:26;3.22;;;0.93;;
61590;SDS011;57639;52.410;-1.966;2023-07-16T08:19:32;1.00;;;0.60;;
61590;SDS011;57639;52.410;-1.966;2023-07-16T08:22:39;2.55;;;0.80;;
61590;SDS011;57639;52.410;-1.966;2023-07-16T08:25:45;1.45;;;0.75;;
61590;SDS011;57639;52.410;-1.966;2023-07-16T08:28:53;2.00;;;0.60;;
61590;SDS011;57639;52.410;-1.966;2023-07-16T08:32:02;1.70;;;0.80;;
61590;SDS011;57639;52.410;-1.966;2023-07-16T08:35:08;2.55;;;0.98;;
61590;SDS011;57639;52.410;-1.966;2023-07-16T08:41:24;1.60;;;0.80;;
61590;SDS011;57639;52.410;-1.966;2023-07-16T08:44:31;1.27;;;0.65;;
61590;SDS011;57639;52.410;-1.966;2023-07-16T08:47:41;2.33;;;0.90;;
61590;SDS011;57639;52.410;-1.966;2023-07-16T08:50:48;1.27;;;0.80;;
61590;SDS011;57639;52.410;-1.966;2023-07-16T08:53:54;2.75;;;0.90;;
61590;SDS011;57639;52.410;-1.966;2023-07-16T08:57:01;1.83;;;0.70;;
61590;SDS011;57639;52.410;-1.966;2023-07-16T09:00:07;2.08;;;0.88;;
61590;SDS011;57639;52.410;-1.966;2023-07-16T09:03:17;1.33;;;0.73;;
61590;SDS011;57639;52.410;-1.966;2023-07-16T09:06:23;1.90;;;0.70;;
61590;SDS011;57639;52.410;-1.966;2023-07-16T09:09:30;3.13;;;0.90;;
61590;SDS011;57639;52.410;-1.966;2023-07-16T09:12:41;1.73;;;0.77;;
61590;SDS011;57639;52.410;-1.966;2023-07-16T09:15:50;1.13;;;0.60;;
61590;SDS011;57639;52.410;-1.966;2023-07-16T09:19:08;2.63;;;0.73;;
61590;SDS011;57639;52.410;-1.966;2023-07-16T09:22:20;1.17;;;0.68;;
61590;SDS011;57639;52.410;-1.966;2023-07-16T09:25:26;1.90;;;0.70;;
61590;SDS011;57639;52.410;-1.966;2023-07-16T09:28:33;1.65;;;0.70;;
61590;SDS011;57639;52.410;-1.966;2023-07-16T09:31:40;2.47;;;0.80;;
61590;SDS011;57639;52.410;-1.966;2023-07-16T09:35:01;1.80;;;0.65;;
61590;SDS011;57639;52.410;-1.966;2023-07-16T09:38:12;1.48;;;0.70;;
61590;SDS011;57639;52.410;-1.966;2023-07-16T09:41:19;1.67;;;0.80;;
61590;SDS011;57639;52.410;-1.966;2023-07-16T09:44:26;1.83;;;0.70;;
61590;SDS011;57639;52.410;-1.966;2023-07-16T09:47:33;1.88;;;0.50;;
61590;SDS011;57639;52.410;-1.966;2023-07-16T09:50:45;1.05;;;0.60;;
61590;SDS011;57639;52.410;-1.966;2023-07-16T09:53:56;1.45;;;0.60;;
61590;SDS011;57639;52.410;-1.966;2023-07-16T09:57:06;1.63;;;0.70;;
61590;SDS011;57639;52.410;-1.966;2023-07-16T10:00:14;2.10;;;0.68;;
61590;SDS011;57639;52.410;-1.966;2023-07-16T10:03:23;1.52;;;0.70;;
61590;SDS011;57639;52.410;-1.966;2023-07-16T10:06:32;1.13;;;0.68;;
61590;SDS011;57639;52.410;-1.966;2023-07-16T10:09:39;3.50;;;0.80;;
61590;SDS011;57639;52.410;-1.966;2023-07-16T10:12:56;2.28;;;0.80;;
61590;SDS011;57639;52.410;-1.966;2023-07-16T10:16:04;1.65;;;0.80;;
61590;SDS011;57639;52.410;-1.966;2023-07-16T10:19:13;1.53;;;0.70;;
61590;SDS011;57639;52.410;-1.966;2023-07-16T10:22:34;2.28;;;0.73;;
61590;SDS011;57639;52.410;-1.966;2023-07-16T10:25:57;1.83;;;0.80;;
61590;SDS011;57639;52.410;-1.966;2023-07-16T10:29:08;1.73;;;0.90;;
61590;SDS011;57639;52.410;-1.966;2023-07-16T10:32:14;2.15;;;1.00;;
61590;SDS011;57639;52.410;-1.966;2023-07-16T10:35:21;1.75;;;0.75;;
61590;SDS011;57639;52.410;-1.966;2023-07-16T10:38:30;2.10;;;0.75;;
61590;SDS011;57639;52.410;-1.966;2023-07-16T10:41:46;1.75;;;0.77;;
61590;SDS011;57639;52.410;-1.966;2023-07-16T10:44:53;2.45;;;0.70;;
61590;SDS011;57639;52.410;-1.966;2023-07-16T10:48:00;2.45;;;0.80;;
61590;SDS011;57639;52.410;-1.966;2023-07-16T10:51:06;2.38;;;0.90;;
61590;SDS011;57639;52.410;-1.966;2023-07-16T10:54:16;2.00;;;0.80;;
61590;SDS011;57639;52.410;-1.966;2023-07-16T10:57:22;1.50;;;0.70;;
61590;SDS011;57639;52.410;-1.966;2023-07-16T11:00:28;1.48;;;0.60;;
61590;SDS011;57639;52.410;-1.966;2023-07-16T11:03:35;1.77;;;0.80;;
61590;SDS011;57639;52.410;-1.966;2023-07-16T11:06:41;2.17;;;0.73;;
61590;SDS011;57639;52.410;-1.966;2023-07-16T11:09:53;2.23;;;0.70;;
61590;SDS011;57639;52.410;-1.966;2023-07-16T11:13:00;2.08;;;0.80;;
61590;SDS011;57639;52.410;-1.966;2023-07-16T11:16:07;2.40;;;0.80;;
61590;SDS011;57639;52.410;-1.966;2023-07-16T11:19:19;1.35;;;0.70;;
61590;SDS011;57639;52.410;-1.966;2023-07-16T11:22:26;1.87;;;0.80;;
61590;SDS011;57639;52.410;-1.966;2023-07-16T11:25:35;1.50;;;0.80;;
61590;SDS011;57639;52.410;-1.966;2023-07-16T11:28:42;1.40;;;0.70;;
61590;SDS011;57639;52.410;-1.966;2023-07-16T11:31:48;1.95;;;0.73;;
61590;SDS011;57639;52.410;-1.966;2023-07-16T11:34:55;1.55;;;0.70;;
61590;SDS011;57639;52.410;-1.966;2023-07-16T11:38:02;1.83;;;0.73;;
61590;SDS011;57639;52.410;-1.966;2023-07-16T11:41:13;1.92;;;0.60;;
61590;SDS011;57639;52.410;-1.966;2023-07-16T11:44:19;1.43;;;0.70;;
61590;SDS011;57639;52.410;-1.966;2023-07-16T11:47:26;1.48;;;0.70;;
61590;SDS011;57639;52.410;-1.966;2023-07-16T11:50:33;1.50;;;0.70;;
61590;SDS011;57639;52.410;-1.966;2023-07-16T11:53:41;1.38;;;0.60;;
61590;SDS011;57639;52.410;-1.966;2023-07-16T11:56:51;1.10;;;0.60;;
61590;SDS011;57639;52.410;-1.966;2023-07-16T11:59:57;1.37;;;0.60;;
61590;SDS011;57639;52.410;-1.966;2023-07-16T12:03:04;1.58;;;0.70;;
61590;SDS011;57639;52.410;-1.966;2023-07-16T12:06:10;1.70;;;0.70;;
61590;SDS011;57639;52.410;-1.966;2023-07-16T12:09:17;2.13;;;0.70;;
61590;SDS011;57639;52.410;-1.966;2023-07-16T12:12:26;2.17;;;0.52;;
61590;SDS011;57639;52.410;-1.966;2023-07-16T12:15:32;1.10;;;0.53;;
61590;SDS011;57639;52.410;-1.966;2023-07-16T12:18:39;9.20;;;1.15;;
61590;SDS011;57639;52.410;-1.966;2023-07-16T12:21:46;4.97;;;0.98;;
61590;SDS011;57639;52.410;-1.966;2023-07-16T12:24:52;3.80;;;1.05;;
61590;SDS011;57639;52.410;-1.966;2023-07-16T12:28:02;2.88;;;1.10;;
61590;SDS011;57639;52.410;-1.966;2023-07-16T12:31:09;5.63;;;0.95;;
61590;SDS011;57639;52.410;-1.966;2023-07-16T12:34:15;5.15;;;1.10;;
61590;SDS011;57639;52.410;-1.966;2023-07-16T12:37:22;7.07;;;1.02;;
61590;SDS011;57639;52.410;-1.966;2023-07-16T12:40:28;7.00;;;1.08;;
61590;SDS011;57639;52.410;-1.966;2023-07-16T12:43:45;4.72;;;1.20;;
61590;SDS011;57639;52.410;-1.966;2023-07-16T12:46:52;4.32;;;1.05;;
61590;SDS011;57639;52.410;-1.966;2023-07-16T12:49:58;5.60;;;0.88;;
61590;SDS011;57639;52.410;-1.966;2023-07-16T12:53:04;3.80;;;1.00;;
61590;SDS011;57639;52.410;-1.966;2023-07-16T12:56:12;3.03;;;0.90;;
61590;SDS011;57639;52.410;-1.966;2023-07-16T12:59:21;6.13;;;1.08;;
61590;SDS011;57639;52.410;-1.966;2023-07-16T13:02:28;2.35;;;0.70;;
61590;SDS011;57639;52.410;-1.966;2023-07-16T13:05:34;4.28;;;0.70;;
61590;SDS011;57639;52.410;-1.966;2023-07-16T13:08:40;4.60;;;0.80;;
61590;SDS011;57639;52.410;-1.966;2023-07-16T13:11:47;3.58;;;1.00;;
61590;SDS011;57639;52.410;-1.966;2023-07-16T13:14:57;2.40;;;0.80;;
61590;SDS011;57639;52.410;-1.966;2023-07-16T13:18:04;4.03;;;0.70;;
61590;SDS011;57639;52.410;-1.966;2023-07-16T13:21:10;4.72;;;0.90;;
61590;SDS011;57639;52.410;-1.966;2023-07-16T13:24:16;4.35;;;0.70;;
61590;SDS011;57639;52.410;-1.966;2023-07-16T13:27:23;3.33;;;0.70;;
61590;SDS011;57639;52.410;-1.966;2023-07-16T13:30:32;3.45;;;0.70;;
61590;SDS011;57639;52.410;-1.966;2023-07-16T13:33:39;3.80;;;0.90;;
61590;SDS011;57639;52.410;-1.966;2023-07-16T13:36:45;1.70;;;0.68;;
61590;SDS011;57639;52.410;-1.966;2023-07-16T13:39:52;1.67;;;0.70;;
61590;SDS011;57639;52.410;-1.966;2023-07-16T13:42:58;1.73;;;0.55;;
61590;SDS011;57639;52.410;-1.966;2023-07-16T13:46:08;4.20;;;0.73;;
61590;SDS011;57639;52.410;-1.966;2023-07-16T13:49:15;3.10;;;0.60;;
61590;SDS011;57639;52.410;-1.966;2023-07-16T13:52:21;3.50;;;0.80;;
61590;SDS011;57639;52.410;-1.966;2023-07-16T13:55:27;3.58;;;0.75;;
61590;SDS011;57639;52.410;-1.966;2023-07-16T13:58:34;70.20;;;3.75;;
61590;SDS011;57639;52.410;-1.966;2023-07-16T14:01:43;35.90;;;2.30;;
61590;SDS011;57639;52.410;-1.966;2023-07-16T14:04:49;30.02;;;1.80;;
61590;SDS011;57639;52.410;-1.966;2023-07-16T14:07:56;37.15;;;2.25;;
61590;SDS011;57639;52.410;-1.966;2023-07-16T14:11:02;24.90;;;2.03;;
61590;SDS011;57639;52.410;-1.966;2023-07-16T14:14:09;32.13;;;2.35;;
61590;SDS011;57639;52.410;-1.966;2023-07-16T14:17:18;16.33;;;1.73;;
61590;SDS011;57639;52.410;-1.966;2023-07-16T14:20:27;14.52;;;1.58;;
61590;SDS011;57639;52.410;-1.966;2023-07-16T14:23:33;18.05;;;1.60;;
61590;SDS011;57639;52.410;-1.966;2023-07-16T14:26:39;19.45;;;1.52;;
61590;SDS011;57639;52.410;-1.966;2023-07-16T14:29:54;11.52;;;1.10;;
61590;SDS011;57639;52.410;-1.966;2023-07-16T14:33:03;12.23;;;1.20;;
61590;SDS011;57639;52.410;-1.966;2023-07-16T14:36:10;8.02;;;1.00;;
61590;SDS011;57639;52.410;-1.966;2023-07-16T14:39:17;11.35;;;1.20;;
61590;SDS011;57639;52.410;-1.966;2023-07-16T14:42:23;10.35;;;1.15;;
61590;SDS011;57639;52.410;-1.966;2023-07-16T14:45:30;8.73;;;1.17;;
61590;SDS011;57639;52.410;-1.966;2023-07-16T14:48:39;7.97;;;1.02;;
61590;SDS011;57639;52.410;-1.966;2023-07-16T14:51:47;4.68;;;1.25;;
61590;SDS011;57639;52.410;-1.966;2023-07-16T14:54:56;5.83;;;0.83;;
61590;SDS011;57639;52.410;-1.966;2023-07-16T15:08:38;3.95;;;0.90;;
61590;SDS011;57639;52.410;-1.966;2023-07-16T15:11:44;3.78;;;0.73;;
61590;SDS011;57639;52.410;-1.966;2023-07-16T15:14:51;7.00;;;1.02;;
61590;SDS011;57639;52.410;-1.966;2023-07-16T15:17:57;6.82;;;1.00;;
61590;SDS011;57639;52.410;-1.966;2023-07-16T15:21:09;2.55;;;0.80;;
61590;SDS011;57639;52.410;-1.966;2023-07-16T15:24:18;4.80;;;0.90;;
61590;SDS011;57639;52.410;-1.966;2023-07-16T15:27:24;4.32;;;0.80;;
61590;SDS011;57639;52.410;-1.966;2023-07-16T15:30:30;5.20;;;0.90;;
61590;SDS011;57639;52.410;-1.966;2023-07-16T15:33:37;4.35;;;1.23;;
61590;SDS011;57639;52.410;-1.966;2023-07-16T15:36:46;3.97;;;0.90;;
61590;SDS011;57639;52.410;-1.966;2023-07-16T15:39:52;5.53;;;0.93;;
61590;SDS011;57639;52.410;-1.966;2023-07-16T15:43:01;2.38;;;0.80;;
61590;SDS011;57639;52.410;-1.966;2023-07-16T15:46:07;4.22;;;0.95;;
61590;SDS011;57639;52.410;-1.966;2023-07-16T15:49:14;5.30;;;0.98;;
61590;SDS011;57639;52.410;-1.966;2023-07-16T15:52:23;3.17;;;1.17;;
61590;SDS011;57639;52.410;-1.966;2023-07-16T15:55:29;3.50;;;0.80;;
61590;SDS011;57639;52.410;-1.966;2023-07-16T15:58:35;3.85;;;0.90;;
61590;SDS011;57639;52.410;-1.966;2023-07-16T16:01:42;2.75;;;0.85;;
61590;SDS011;57639;52.410;-1.966;2023-07-16T16:04:49;1.98;;;0.77;;
61590;SDS011;57639;52.410;-1.966;2023-07-16T16:08:14;3.55;;;0.80;;
61590;SDS011;57639;52.410;-1.966;2023-07-16T16:11:21;5.68;;;0.88;;
61590;SDS011;57639;52.410;-1.966;2023-07-16T16:14:28;5.85;;;0.95;;
61590;SDS011;57639;52.410;-1.966;2023-07-16T16:17:35;3.75;;;0.90;;
61590;SDS011;57639;52.410;-1.966;2023-07-16T16:20:42;4.30;;;0.80;;
61590;SDS011;57639;52.410;-1.966;2023-07-16T16:23:53;2.95;;;0.90;;
61590;SDS011;57639;52.410;-1.966;2023-07-16T16:27:03;2.97;;;1.00;;
61590;SDS011;57639;52.410;-1.966;2023-07-16T16:30:10;1.25;;;0.73;;
61590;SDS011;57639;52.410;-1.966;2023-07-16T16:33:17;2.58;;;0.80;;
61590;SDS011;57639;52.410;-1.966;2023-07-16T16:36:23;3.05;;;0.82;;
61590;SDS011;57639;52.410;-1.966;2023-07-16T16:39:33;3.20;;;1.23;;
61590;SDS011;57639;52.410;-1.966;2023-07-16T16:42:40;3.10;;;0.80;;
61590;SDS011;57639;52.410;-1.966;2023-07-16T16:45:47;3.03;;;0.70;;
61590;SDS011;57639;52.410;-1.966;2023-07-16T16:48:53;2.50;;;0.63;;
61590;SDS011;57639;52.410;-1.966;2023-07-16T16:52:00;2.17;;;0.80;;
61590;SDS011;57639;52.410;-1.966;2023-07-16T16:55:09;5.22;;;0.70;;
61590;SDS011;57639;52.410;-1.966;2023-07-16T16:58:16;1.90;;;0.70;;
61590;SDS011;57639;52.410;-1.966;2023-07-16T17:01:23;2.10;;;0.80;;
61590;SDS011;57639;52.410;-1.966;2023-07-16T17:04:29;3.95;;;0.85;;
61590;SDS011;57639;52.410;-1.966;2023-07-16T17:07:36;2.22;;;0.70;;
61590;SDS011;57639;52.410;-1.966;2023-07-16T17:10:45;3.95;;;0.75;;
61590;SDS011;57639;52.410;-1.966;2023-07-16T17:13:51;4.87;;;0.77;;
61590;SDS011;57639;52.410;-1.966;2023-07-16T17:16:57;3.15;;;1.00;;
61590;SDS011;57639;52.410;-1.966;2023-07-16T17:20:04;4.32;;;0.80;;
61590;SDS011;57639;52.410;-1.966;2023-07-16T17:23:12;5.35;;;1.00;;
61590;SDS011;57639;52.410;-1.966;2023-07-16T17:26:21;5.25;;;1.00;;
61590;SDS011;57639;52.410;-1.966;2023-07-16T17:29:27;7.80;;;1.10;;
61590;SDS011;57639;52.410;-1.966;2023-07-16T17:32:34;6.45;;;1.10;;
61590;SDS011;57639;52.410;-1.966;2023-07-16T17:35:40;11.32;;;1.17;;
61590;SDS011;57639;52.410;-1.966;2023-07-16T17:38:46;12.93;;;1.50;;
61590;SDS011;57639;52.410;-1.966;2023-07-16T17:41:55;10.82;;;1.40;;
61590;SDS011;57639;52.410;-1.966;2023-07-16T17:45:02;12.10;;;1.60;;
61590;SDS011;57639;52.410;-1.966;2023-07-16T17:48:08;9.73;;;1.40;;
61590;SDS011;57639;52.410;-1.966;2023-07-16T17:51:15;9.90;;;1.42;;
61590;SDS011;57639;52.410;-1.966;2023-07-16T17:54:21;10.18;;;1.40;;
61590;SDS011;57639;52.410;-1.966;2023-07-16T17:57:30;9.85;;;1.15;;
61590;SDS011;57639;52.410;-1.966;2023-07-16T18:00:37;6.50;;;1.10;;
61590;SDS011;57639;52.410;-1.966;2023-07-16T18:03:46;5.22;;;0.82;;
61590;SDS011;57639;52.410;-1.966;2023-07-16T18:06:53;8.00;;;1.35;;
61590;SDS011;57639;52.410;-1.966;2023-07-16T18:10:02;8.90;;;1.00;;
61590;SDS011;57639;52.410;-1.966;2023-07-16T18:13:12;4.82;;;1.00;;
61590;SDS011;57639;52.410;-1.966;2023-07-16T18:16:18;4.50;;;1.17;;
61590;SDS011;57639;52.410;-1.966;2023-07-16T18:19:26;4.85;;;0.93;;
61590;SDS011;57639;52.410;-1.966;2023-07-16T18:22:35;6.10;;;1.20;;
61590;SDS011;57639;52.410;-1.966;2023-07-16T18:25:41;9.60;;;1.13;;
61590;SDS011;57639;52.410;-1.966;2023-07-16T18:28:50;3.35;;;0.90;;
61590;SDS011;57639;52.410;-1.966;2023-07-16T18:31:57;6.80;;;1.07;;
61590;SDS011;57639;52.410;-1.966;2023-07-16T18:35:06;3.95;;;1.10;;
61590;SDS011;57639;52.410;-1.966;2023-07-16T18:38:13;2.90;;;1.02;;
61590;SDS011;57639;52.410;-1.966;2023-07-16T18:41:20;5.05;;;1.08;;
61590;SDS011;57639;52.410;-1.966;2023-07-16T18:44:29;3.40;;;1.05;;
61590;SDS011;57639;52.410;-1.966;2023-07-16T18:47:35;5.77;;;1.27;;
61590;SDS011;57639;52.410;-1.966;2023-07-16T18:50:41;4.65;;;1.20;;